createdAt,value
2023-01-25T00:02:10.113Z,78.45
2023-01-25T00:04:37.089Z,77.57
2023-01-25T00:07:04.026Z,83.10
2023-01-25T00:09:30.989Z,79.53
2023-01-25T00:11:58.244Z,80.53
2023-01-25T00:14:25.619Z,78.18
2023-01-25T00:16:52.913Z,87.68
2023-01-25T00:19:19.933Z,83.05
2023-01-25T00:21:46.978Z,82.75
2023-01-25T00:24:14.673Z,80.25
2023-01-25T00:26:43.964Z,83.47
2023-01-25T00:29:14.735Z,82.35
2023-01-25T00:31:57.074Z,81.47
2023-01-25T00:34:27.247Z,83.82
2023-01-25T00:37:06.448Z,83.00
2023-01-25T00:39:33.583Z,88.03
2023-01-25T00:42:00.436Z,87.88
2023-01-25T00:44:27.569Z,87.20
2023-01-25T00:46:54.533Z,90.97
2023-01-25T00:49:24.539Z,85.65
2023-01-25T00:51:53.043Z,84.13
2023-01-25T00:54:20.662Z,87.00
2023-01-25T00:56:47.767Z,92.15
2023-01-25T00:59:15.286Z,94.50
2023-01-25T01:01:42.557Z,96.15
2023-01-25T01:04:09.896Z,94.35
2023-01-25T01:06:38.027Z,93.72
2023-01-25T01:09:06.998Z,95.93
2023-01-25T01:11:34.256Z,94.90
2023-01-25T01:14:01.131Z,93.75
2023-01-25T01:16:31.974Z,91.63
2023-01-25T01:18:59.014Z,96.75
2023-01-25T01:21:26.241Z,93.13
2023-01-25T01:23:55.177Z,90.03
2023-01-25T01:26:22.278Z,98.03
2023-01-25T01:28:49.455Z,93.88
2023-01-25T01:31:19.722Z,88.85
2023-01-25T01:33:58.271Z,89.30
2023-01-25T01:36:27.848Z,93.85
2023-01-25T01:38:55.276Z,95.28
2023-01-25T01:41:22.351Z,93.05
2023-01-25T01:43:49.667Z,97.38
2023-01-25T01:46:22.692Z,96.95
2023-01-25T01:48:53.264Z,90.50
2023-01-25T01:51:40.973Z,92.00
2023-01-25T01:54:25.941Z,98.38
2023-01-25T01:57:09.599Z,90.75
2023-01-25T01:59:52.891Z,92.90
2023-01-25T02:02:20.094Z,93.50
2023-01-25T02:04:49.302Z,96.30
2023-01-25T02:07:43.585Z,93.88
2023-01-25T02:10:12.426Z,93.80
2023-01-25T02:12:41.350Z,96.20
2023-01-25T02:15:09.606Z,95.30
2023-01-25T02:17:39.250Z,95.95
2023-01-25T02:20:35.425Z,101.78
2023-01-25T02:23:14.796Z,95.70
2023-01-25T02:25:42.288Z,92.38
2023-01-25T02:28:18.241Z,94.22
2023-01-25T02:30:45.806Z,93.00
2023-01-25T02:33:13.446Z,95.30
2023-01-25T02:35:53.931Z,93.18
2023-01-25T02:38:21.425Z,91.47
2023-01-25T02:40:57.751Z,94.65
2023-01-25T02:43:29.684Z,92.95
2023-01-25T02:46:28.542Z,95.93
2023-01-25T02:48:56.539Z,96.80
2023-01-25T02:51:25.782Z,96.70
2023-01-25T02:53:52.960Z,97.88
2023-01-25T02:56:21.109Z,92.82
2023-01-25T02:58:48.594Z,94.57
2023-01-25T03:01:16.767Z,90.63
2023-01-25T03:03:44.039Z,97.18
2023-01-25T03:06:11.041Z,91.07
2023-01-25T03:08:39.300Z,91.88
2023-01-25T03:11:07.269Z,100.25
2023-01-25T03:13:36.437Z,97.68
2023-01-25T03:16:08.159Z,96.43
2023-01-25T03:18:36.483Z,96.88
2023-01-25T03:21:12.952Z,88.57
2023-01-25T03:23:40.826Z,94.40
2023-01-25T03:26:15.094Z,99.82
2023-01-25T03:28:57.754Z,101.70
2023-01-25T03:31:25.257Z,97.97
2023-01-25T03:33:52.200Z,102.23
2023-01-25T03:36:22.869Z,102.00
2023-01-25T03:38:49.952Z,98.25
2023-01-25T03:41:17.742Z,103.28
2023-01-25T03:43:46.051Z,100.10
2023-01-25T03:46:16.684Z,102.70
2023-01-25T03:48:43.724Z,101.20
2023-01-25T03:51:11.363Z,99.85
2023-01-25T03:53:38.341Z,98.85
2023-01-25T03:56:19.967Z,103.90
2023-01-25T03:58:57.694Z,107.00
2023-01-25T04:01:24.678Z,103.75
2023-01-25T04:03:51.639Z,99.25
2023-01-25T04:06:18.761Z,100.20
2023-01-25T04:08:45.618Z,104.50
2023-01-25T04:11:13.963Z,101.07
2023-01-25T04:13:44.023Z,98.13
2023-01-25T04:16:13.542Z,102.75
2023-01-25T04:21:27.846Z,103.95
2023-01-25T04:23:54.920Z,107.40
2023-01-25T04:26:22.247Z,102.78
2023-01-25T04:28:54.667Z,101.78
2023-01-25T04:31:22.215Z,100.18
2023-01-25T04:33:50.741Z,99.55
2023-01-25T04:36:20.091Z,100.07
2023-01-25T04:38:47.995Z,97.03
2023-01-25T04:41:15.255Z,96.10
2023-01-25T04:43:43.631Z,92.03
2023-01-25T04:46:11.098Z,93.93
2023-01-25T04:48:38.049Z,95.05
2023-01-25T04:51:09.423Z,91.43
2023-01-25T04:53:36.533Z,91.57
2023-01-25T04:56:06.609Z,97.57
2023-01-25T04:58:41.625Z,94.53
2023-01-25T05:01:09.008Z,96.50
2023-01-25T05:03:36.015Z,93.70
2023-01-25T05:06:04.691Z,96.15
2023-01-25T05:08:31.632Z,93.10
2023-01-25T05:11:01.966Z,90.70
2023-01-25T05:13:49.909Z,91.97
2023-01-25T05:16:21.789Z,92.90
2023-01-25T05:18:49.578Z,94.50
2023-01-25T05:21:40.161Z,92.95
2023-01-25T05:24:08.375Z,90.82
2023-01-25T05:26:54.082Z,99.78
2023-01-25T05:29:21.736Z,92.75
2023-01-25T05:32:00.579Z,96.95
2023-01-25T05:34:29.098Z,102.85
2023-01-25T05:36:57.253Z,91.75
2023-01-25T05:39:24.993Z,93.18
2023-01-25T05:41:53.414Z,98.22
2023-01-25T05:44:20.895Z,97.68
2023-01-25T05:46:50.617Z,102.82
2023-01-25T05:49:18.052Z,98.82
2023-01-25T05:51:45.741Z,95.03
2023-01-25T05:54:15.656Z,96.72
2023-01-25T05:59:17.387Z,94.35
2023-01-25T06:01:44.879Z,92.10
2023-01-25T06:04:16.125Z,97.03
2023-01-25T06:06:43.181Z,105.63
2023-01-25T06:09:14.300Z,100.57
2023-01-25T06:11:45.089Z,95.63
2023-01-25T06:14:12.066Z,109.63
2023-01-25T06:16:39.057Z,101.22
2023-01-25T06:19:41.195Z,102.47
2023-01-25T06:22:28.303Z,102.32
2023-01-25T06:24:56.184Z,99.50
2023-01-25T06:27:23.015Z,99.90
2023-01-25T06:29:50.608Z,105.60
2023-01-25T06:32:17.684Z,100.57
2023-01-25T06:34:46.325Z,100.22
2023-01-25T06:37:21.885Z,107.60
2023-01-25T06:39:48.922Z,101.53
2023-01-25T06:42:15.924Z,109.90
2023-01-25T06:44:42.864Z,107.68
2023-01-25T06:47:10.233Z,112.72
2023-01-25T06:49:37.444Z,111.13
2023-01-25T06:52:04.407Z,106.65
2023-01-25T06:54:31.363Z,104.90
2023-01-25T06:56:58.218Z,111.90
2023-01-25T06:59:25.170Z,111.38
2023-01-25T07:01:52.039Z,104.78
2023-01-25T07:04:19.012Z,110.35
2023-01-25T07:06:48.370Z,113.53
2023-01-25T07:09:15.501Z,116.78
2023-01-25T07:11:42.513Z,110.53
2023-01-25T07:14:09.426Z,108.00
2023-01-25T07:16:37.362Z,113.13
2023-01-25T07:19:10.243Z,117.82
2023-01-25T07:21:37.160Z,110.20
2023-01-25T07:24:05.133Z,111.97
2023-01-25T07:26:32.342Z,106.75
2023-01-25T07:28:59.776Z,106.35
2023-01-25T07:31:27.624Z,114.43
2023-01-25T07:33:56.536Z,112.70
2023-01-25T07:36:23.859Z,113.47
2023-01-25T07:38:58.343Z,106.13
2023-01-25T07:41:25.977Z,111.40
2023-01-25T07:43:54.008Z,117.10
2023-01-25T07:46:35.663Z,106.75
2023-01-25T07:49:02.557Z,109.93
2023-01-25T07:51:31.049Z,109.75
2023-01-25T07:54:03.831Z,114.15
2023-01-25T07:56:37.747Z,109.90
2023-01-25T07:59:08.172Z,107.32
2023-01-25T08:01:36.885Z,111.95
2023-01-25T08:04:04.819Z,107.90
2023-01-25T08:06:39.012Z,107.75
2023-01-25T08:09:13.954Z,107.73
2023-01-25T08:11:42.429Z,110.82
2023-01-25T08:14:09.659Z,102.53
2023-01-25T08:16:37.000Z,111.07
2023-01-25T08:19:04.513Z,107.13
2023-01-25T08:21:33.598Z,106.97
2023-01-25T08:24:03.903Z,113.95
2023-01-25T08:26:31.093Z,113.50
2023-01-25T08:28:58.348Z,113.70
2023-01-25T08:31:28.680Z,115.47
2023-01-25T08:33:56.415Z,107.60
2023-01-25T08:36:24.326Z,121.20
2023-01-25T08:39:01.351Z,107.10
2023-01-25T08:41:30.362Z,115.90
2023-01-25T08:43:57.746Z,107.60
2023-01-25T08:46:29.377Z,106.75
2023-01-25T08:48:59.257Z,109.90
2023-01-25T08:51:26.935Z,105.45
2023-01-25T08:53:53.926Z,105.20
2023-01-25T08:56:20.836Z,98.88
2023-01-25T08:58:49.982Z,106.28
2023-01-25T09:01:19.155Z,106.45
2023-01-25T09:03:50.675Z,103.15
2023-01-25T09:06:19.688Z,101.88
2023-01-25T09:08:46.954Z,110.07
2023-01-25T09:11:16.928Z,109.28
2023-01-25T09:13:44.316Z,101.78
2023-01-25T09:16:17.367Z,104.30
2023-01-25T09:18:45.168Z,105.15
2023-01-25T09:21:18.011Z,103.88
2023-01-25T09:24:05.550Z,106.13
2023-01-25T09:26:36.097Z,108.53
2023-01-25T09:29:03.181Z,106.72
2023-01-25T09:31:30.471Z,107.57
2023-01-25T09:34:33.081Z,107.82
2023-01-25T09:36:59.952Z,112.68
2023-01-25T09:39:27.055Z,111.82
2023-01-25T09:42:20.522Z,114.20
2023-01-25T09:44:54.056Z,118.05
2023-01-25T09:47:47.702Z,120.07
2023-01-25T09:50:34.937Z,111.03
2023-01-25T09:53:04.725Z,107.35
2023-01-25T09:55:33.202Z,110.35
2023-01-25T09:58:02.751Z,115.70
2023-01-25T10:00:52.701Z,108.50
2023-01-25T10:03:50.790Z,105.80
2023-01-25T10:06:19.161Z,115.53
2023-01-25T10:09:22.298Z,110.38
2023-01-25T10:11:49.319Z,119.35
2023-01-25T10:14:18.825Z,115.22
2023-01-25T10:16:50.106Z,113.45
2023-01-25T10:19:23.076Z,113.20
2023-01-25T10:22:18.243Z,117.63
2023-01-25T10:25:18.607Z,111.00
2023-01-25T10:28:10.304Z,113.38
2023-01-25T10:30:49.592Z,109.75
2023-01-25T10:33:20.041Z,111.32
2023-01-25T10:35:49.685Z,110.60
2023-01-25T10:38:25.676Z,110.15
2023-01-25T10:41:02.171Z,113.15
2023-01-25T10:43:29.807Z,105.32
2023-01-25T10:45:56.808Z,111.47
2023-01-25T10:48:29.955Z,108.38
2023-01-25T10:50:57.869Z,104.97
2023-01-25T10:53:36.732Z,107.38
2023-01-25T10:56:03.683Z,113.97
2023-01-25T10:58:33.686Z,102.70
2023-01-25T11:01:01.536Z,112.63
2023-01-25T11:03:39.278Z,102.28
2023-01-25T11:06:08.379Z,114.07
2023-01-25T11:08:36.568Z,133.60
2023-01-25T11:11:22.641Z,141.55
2023-01-25T11:13:50.132Z,130.95
2023-01-25T11:16:23.532Z,122.78
2023-01-25T11:18:53.030Z,120.20
2023-01-25T11:21:25.340Z,118.03
2023-01-25T11:24:09.042Z,114.72
2023-01-25T11:26:40.811Z,119.63
2023-01-25T11:29:24.808Z,111.70
2023-01-25T11:31:55.548Z,116.07
2023-01-25T11:34:26.616Z,118.95
2023-01-25T11:37:08.949Z,116.90
2023-01-25T11:39:45.043Z,119.38
2023-01-25T11:42:32.707Z,110.63
2023-01-25T11:45:14.754Z,117.10
2023-01-25T11:47:53.052Z,115.30
2023-01-25T11:50:59.907Z,120.03
2023-01-25T11:53:26.859Z,124.60
2023-01-25T11:56:25.821Z,120.05
2023-01-25T11:59:01.674Z,124.88
2023-01-25T12:01:48.227Z,118.15
2023-01-25T12:04:27.124Z,120.68
2023-01-25T12:06:59.582Z,111.10
2023-01-25T12:09:47.230Z,114.13
2023-01-25T12:12:22.133Z,110.80
2023-01-25T12:14:51.757Z,114.97
2023-01-25T12:17:37.250Z,103.22
2023-01-25T12:20:23.266Z,103.78
2023-01-25T12:23:09.152Z,107.28
2023-01-25T12:28:51.923Z,109.15
2023-01-25T12:31:25.009Z,107.93
2023-01-25T12:34:05.083Z,108.93
2023-01-25T12:36:44.556Z,109.45
2023-01-25T12:39:19.284Z,110.75
2023-01-25T12:41:57.112Z,103.35
2023-01-25T12:44:35.962Z,112.72
2023-01-25T12:47:20.688Z,115.63
2023-01-25T12:49:54.103Z,116.18
2023-01-25T12:52:37.548Z,116.72
2023-01-25T12:55:06.954Z,113.72
2023-01-25T12:57:55.840Z,117.43
2023-01-25T13:00:34.998Z,118.95
2023-01-25T13:03:22.191Z,114.53
2023-01-25T13:05:54.858Z,124.30
2023-01-25T13:08:33.756Z,116.03
2023-01-25T13:11:13.287Z,120.43
2023-01-25T13:13:40.509Z,117.47
2023-01-25T13:16:35.130Z,119.85
2023-01-25T13:19:02.387Z,115.18
2023-01-25T13:21:40.263Z,107.05
2023-01-25T13:24:23.453Z,113.15
2023-01-25T13:26:57.369Z,114.90
2023-01-25T13:29:39.699Z,116.25
2023-01-25T13:32:13.195Z,109.70
2023-01-25T13:34:44.274Z,107.18
2023-01-25T13:37:31.054Z,106.80
2023-01-25T13:40:10.856Z,105.00
2023-01-25T13:42:39.606Z,114.25
2023-01-25T13:45:27.300Z,106.65
2023-01-25T13:48:05.367Z,100.70
2023-01-25T13:50:38.112Z,105.65
2023-01-25T13:53:18.236Z,103.22
2023-01-25T13:55:54.222Z,104.68
2023-01-25T13:58:28.205Z,101.63
2023-01-25T14:01:06.487Z,105.68
2023-01-25T14:03:50.094Z,104.60
2023-01-25T14:06:25.094Z,113.68
2023-01-25T14:08:54.208Z,120.95
2023-01-25T14:11:24.794Z,108.07
2023-01-25T14:14:21.570Z,109.38
2023-01-25T14:17:10.152Z,111.32
2023-01-25T14:19:39.962Z,115.40
2023-01-25T14:22:27.009Z,105.32
2023-01-25T14:25:08.149Z,109.82
2023-01-25T14:27:54.042Z,109.38
2023-01-25T14:30:25.552Z,103.65
2023-01-25T14:32:55.351Z,111.65
2023-01-25T14:35:53.672Z,110.80
2023-01-25T14:38:39.669Z,108.70
2023-01-25T14:41:14.462Z,104.78
2023-01-25T14:43:45.359Z,98.93
2023-01-25T14:46:23.037Z,113.15
2023-01-25T14:48:50.252Z,120.10
2023-01-25T14:51:28.703Z,106.63
2023-01-25T14:54:05.500Z,118.03
2023-01-25T14:56:42.488Z,124.18
2023-01-25T14:59:30.115Z,120.28
2023-01-25T15:02:19.821Z,117.15
2023-01-25T15:04:58.020Z,116.45
2023-01-25T15:07:41.174Z,119.45
2023-01-25T15:10:27.163Z,127.75
2023-01-25T15:13:27.196Z,116.82
2023-01-25T15:15:57.799Z,125.28
2023-01-25T15:18:46.077Z,122.22
2023-01-25T15:21:24.324Z,122.03
2023-01-25T15:23:51.935Z,124.18
2023-01-25T15:26:29.813Z,121.75
2023-01-25T15:29:02.213Z,124.75
2023-01-25T15:31:32.246Z,124.03
2023-01-25T15:34:01.417Z,124.30
2023-01-25T15:36:29.994Z,122.88
2023-01-25T15:38:57.308Z,120.82
2023-01-25T15:41:24.774Z,121.55
2023-01-25T15:43:52.429Z,126.03
2023-01-25T15:46:21.455Z,125.00
2023-01-25T15:48:50.205Z,122.13
2023-01-25T15:51:17.893Z,121.65
2023-01-25T15:53:45.057Z,116.25
2023-01-25T15:56:20.365Z,127.90
2023-01-25T15:59:15.014Z,119.82
2023-01-25T16:01:42.070Z,121.78
2023-01-25T16:04:10.882Z,122.40
2023-01-25T16:06:44.111Z,131.80
2023-01-25T16:09:20.477Z,120.70
2023-01-25T16:11:51.162Z,127.72
2023-01-25T16:14:18.933Z,130.45
2023-01-25T16:16:49.329Z,115.55
2023-01-25T16:19:18.915Z,125.78
2023-01-25T16:21:45.794Z,118.55
2023-01-25T16:24:13.156Z,122.75
2023-01-25T16:27:06.528Z,124.97
2023-01-25T16:29:33.540Z,125.97
2023-01-25T16:32:00.569Z,121.53
2023-01-25T16:34:27.594Z,125.80
2023-01-25T16:36:54.515Z,126.05
2023-01-25T16:39:24.129Z,130.38
2023-01-25T16:41:51.577Z,128.15
2023-01-25T16:44:18.733Z,121.53
2023-01-25T16:46:48.251Z,126.72
2023-01-25T16:49:26.568Z,114.00
2023-01-25T16:51:54.605Z,124.85
2023-01-25T16:54:22.239Z,122.20
2023-01-25T16:56:50.998Z,128.20
2023-01-25T16:59:18.970Z,122.55
2023-01-25T17:01:46.245Z,119.18
2023-01-25T17:04:13.711Z,123.70
2023-01-25T17:06:46.881Z,122.78
2023-01-25T17:09:23.686Z,121.93
2023-01-25T17:11:52.451Z,118.93
2023-01-25T17:14:20.209Z,116.60
2023-01-25T17:16:50.351Z,125.97
2023-01-25T17:19:18.274Z,119.95
2023-01-25T17:21:45.850Z,121.32
2023-01-25T17:24:15.181Z,131.77
2023-01-25T17:26:42.586Z,150.10
2023-01-25T17:29:10.335Z,164.68
2023-01-25T17:31:39.703Z,189.80
2023-01-25T17:34:10.939Z,122.40
2023-01-25T17:36:37.950Z,135.00
2023-01-25T17:39:06.543Z,144.10
2023-01-25T17:41:33.769Z,129.48
2023-01-25T17:44:01.003Z,113.63
2023-01-25T17:46:37.474Z,119.55
2023-01-25T17:49:07.565Z,117.18
2023-01-25T17:51:36.244Z,118.35
2023-01-25T17:54:05.145Z,118.45
2023-01-25T17:56:32.469Z,113.57
2023-01-25T17:59:01.431Z,118.82
2023-01-25T18:01:32.011Z,115.68
2023-01-25T18:04:00.731Z,120.72
2023-01-25T18:06:30.949Z,119.68
2023-01-25T18:09:00.736Z,125.13
2023-01-25T18:11:30.985Z,122.72
2023-01-25T18:14:01.005Z,127.40
2023-01-25T18:16:29.971Z,118.28
2023-01-25T18:18:58.852Z,124.32
2023-01-25T18:21:28.566Z,125.13
2023-01-25T18:24:01.391Z,132.13
2023-01-25T18:26:30.772Z,122.82
2023-01-25T18:29:09.948Z,121.80
2023-01-25T18:31:37.251Z,114.88
2023-01-25T18:34:04.633Z,126.72
2023-01-25T18:36:31.574Z,115.55
2023-01-25T18:38:59.999Z,126.72
2023-01-25T18:41:27.187Z,115.85
2023-01-25T18:43:54.122Z,131.32
2023-01-25T18:46:21.174Z,120.60
2023-01-25T18:48:48.437Z,118.35
2023-01-25T18:51:17.740Z,117.65
2023-01-25T18:53:47.448Z,119.50
2023-01-25T18:56:20.618Z,124.28
2023-01-25T18:58:48.337Z,129.52
2023-01-25T19:01:18.093Z,128.23
2023-01-25T19:03:46.575Z,127.13
2023-01-25T19:06:14.041Z,130.32
2023-01-25T19:08:43.157Z,128.18
2023-01-25T19:11:13.421Z,131.20
2023-01-25T19:13:41.866Z,130.82
2023-01-25T19:16:20.913Z,143.02
2023-01-25T19:18:50.114Z,141.27
2023-01-25T19:21:25.605Z,134.32
2023-01-25T19:23:53.906Z,135.30
2023-01-25T19:26:25.042Z,142.52
2023-01-25T19:28:52.886Z,139.35
2023-01-25T19:31:22.476Z,147.55
2023-01-25T19:33:55.469Z,140.57
2023-01-25T19:36:22.945Z,143.75
2023-01-25T19:38:50.317Z,138.85
2023-01-25T19:41:25.876Z,140.05
2023-01-25T19:44:01.210Z,145.73
2023-01-25T19:48:58.565Z,144.23
2023-01-25T19:51:28.295Z,147.55
2023-01-25T19:54:00.025Z,139.82
2023-01-25T19:56:29.356Z,155.20
2023-01-25T19:58:56.430Z,142.23
2023-01-25T20:01:28.904Z,154.27
2023-01-25T20:04:02.200Z,148.10
2023-01-25T20:06:29.286Z,154.68
2023-01-25T20:08:56.548Z,163.43
2023-01-25T20:11:26.317Z,161.13
2023-01-25T20:13:58.061Z,158.60
2023-01-25T20:16:25.645Z,158.60
2023-01-25T20:18:52.736Z,174.65
2023-01-25T20:21:21.780Z,161.63
2023-01-25T20:23:57.066Z,164.73
2023-01-25T20:28:56.000Z,152.57
2023-01-25T20:31:23.059Z,159.32
2023-01-25T20:33:51.119Z,160.38
2023-01-25T20:36:18.009Z,164.02
2023-01-25T20:38:45.563Z,176.27
2023-01-25T20:41:14.499Z,165.32
2023-01-25T20:43:53.112Z,160.60
2023-01-25T20:46:21.765Z,179.45
2023-01-25T20:48:49.161Z,172.00
2023-01-25T20:51:21.426Z,167.10
2023-01-25T20:53:50.075Z,173.52
2023-01-25T20:56:18.876Z,172.38
2023-01-25T20:58:50.543Z,169.30
2023-01-25T21:01:24.735Z,172.73
2023-01-25T21:03:54.435Z,177.00
2023-01-25T21:06:21.351Z,174.80
2023-01-25T21:08:48.221Z,174.18
2023-01-25T21:11:15.481Z,167.65
2023-01-25T21:13:42.612Z,163.15
2023-01-25T21:16:11.000Z,164.35
2023-01-25T21:18:49.124Z,181.48
2023-01-25T21:21:28.188Z,173.07
2023-01-25T21:23:58.167Z,173.30
2023-01-25T21:26:28.016Z,178.80
2023-01-25T21:28:55.426Z,165.00
2023-01-25T21:31:24.788Z,173.73
2023-01-25T21:33:52.228Z,154.07
2023-01-25T21:36:20.042Z,158.57
2023-01-25T21:38:52.525Z,165.25
2023-01-25T21:41:25.293Z,169.43
2023-01-25T21:44:15.796Z,167.60
2023-01-25T21:46:52.342Z,144.50
2023-01-25T21:49:46.466Z,144.77
2023-01-25T21:52:13.552Z,153.07
2023-01-25T21:54:40.431Z,144.63
2023-01-25T21:57:09.354Z,142.85
2023-01-25T21:59:38.037Z,140.15
2023-01-25T22:02:06.419Z,132.45
2023-01-25T22:04:36.263Z,129.52
2023-01-25T22:07:04.410Z,134.27
2023-01-25T22:09:31.598Z,121.18
2023-01-25T22:11:58.690Z,124.82
2023-01-25T22:14:25.603Z,120.57
2023-01-25T22:16:52.867Z,137.98
2023-01-25T22:19:20.379Z,120.38
2023-01-25T22:21:47.820Z,119.38
2023-01-25T22:24:15.089Z,126.88
2023-01-25T22:26:51.649Z,128.13
2023-01-25T22:29:18.568Z,123.10
2023-01-25T22:31:45.518Z,124.53
2023-01-25T22:34:12.478Z,122.63
2023-01-25T22:36:39.319Z,125.95
2023-01-25T22:39:06.420Z,117.80
2023-01-25T22:41:37.236Z,122.47
2023-01-25T22:44:04.594Z,117.05
2023-01-25T22:46:31.523Z,118.80
2023-01-25T22:48:59.087Z,125.15
2023-01-25T22:51:29.007Z,116.10
2023-01-25T22:53:57.871Z,124.38
2023-01-25T22:56:32.058Z,124.57
2023-01-25T22:59:00.518Z,126.43
2023-01-25T23:01:30.722Z,116.75
2023-01-25T23:03:58.217Z,124.65
2023-01-25T23:06:27.651Z,122.90
2023-01-25T23:09:03.327Z,113.28
2023-01-25T23:11:35.793Z,112.53
2023-01-25T23:14:26.784Z,113.38
2023-01-25T23:17:13.924Z,118.70
2023-01-25T23:19:40.897Z,112.20
2023-01-25T23:22:07.812Z,104.63
2023-01-25T23:24:34.738Z,120.30
2023-01-25T23:27:01.659Z,96.75
2023-01-25T23:29:28.598Z,111.05
2023-01-25T23:31:55.500Z,103.78
2023-01-25T23:34:22.451Z,91.35
2023-01-25T23:36:49.305Z,93.28
2023-01-25T23:39:16.261Z,105.57
2023-01-25T23:41:43.090Z,105.28
2023-01-25T23:44:09.970Z,119.55
2023-01-25T23:46:37.196Z,113.57
2023-01-25T23:49:04.603Z,121.43
2023-01-25T23:51:31.455Z,117.35
2023-01-25T23:53:58.438Z,111.13
2023-01-25T23:56:25.504Z,117.78
2023-01-25T23:58:52.567Z,127.75
